Main page
METAR-TAF:

METAR-TAF

Airports :

Reus Airport

Reus, Spain

latitude: 41-09N, longitude: 001-10E, elevation: 71 m

Current weather observation

The report was made 32 minutes ago, at 15:00 UTC
Wind 7 kt from the South/Southeast, varying between East/Southeast and Southwest
Temperature 17°C
Humidity 48%
Pressure 1016 hPa
Visibility 10 km or more
no clouds below 1500 m and no cumulonimbus

METAR: LERS 281500Z 15007KT 110V230 CAVOK 17/06 Q1016

Time: 16:32 (15:32 UTC)

Forecast

The report was made 1 hour and 32 minutes ago, at 14:00 UTC
Forecast valid from 28 at 15 UTC to 29 at 15 UTC
Wind 4 kt from variable directions
Visibility 10 km or more
Scattered clouds at a height of 3000 ft
Temporary
from 28 at 15 UTC to 28 at 17 UTC
Wind 8 kt from the Southwest
Becoming
from 29 at 07 UTC to 29 at 10 UTC
Wind 12 kt from the West

TAF: LERS 281400Z 2815/2915 VRB04KT 9999 SCT030 TX21/2913Z TN06/2906Z TEMPO 2815/2817 22008KT BECMG 2907/2910 28012KT

Weather observations and forecasts of more than 4000 airports (METAR and TAF reports).

The available stations are represented by yellow and red dots on the map.

Hover mouse over dot to see the name of the station.

Then click to see weather observations and forecasts.

To change the map : click on the green buttons with a black cross to zoom in, on the green button with a dash to zoom out, or on the green arrows for adjacent maps.


METAR-TAF: